Time;durP1;ratioP1;P1;durP2;ratioP2;P2;SDS_P1;SDS_P2;PMS_P1;PMS_P2;Temp;Humidity;BMP_temperature;BMP_pressure;BME280_temperature;BME280_humidity;BME280_pressure;Samples;Min_cycle;Max_cycle;Signal;HPM_P1;HPM_P2
2023/12/05 00:00:36;;;;;;;23.70;16.73;;;1.10;99.90;;;;;;4978728;28;20555;-80
2023/12/05 00:03:02;;;;;;;25.50;17.80;;;1.10;99.90;;;;;;4995359;28;20046;-80
2023/12/05 00:05:28;;;;;;;21.92;16.55;;;1.10;99.90;;;;;;4992109;28;20259;-80
2023/12/05 00:07:55;;;;;;;21.30;16.00;;;1.10;99.90;;;;;;4976195;28;20080;-79
2023/12/05 00:10:20;;;;;;;22.35;16.80;;;1.20;99.90;;;;;;4977468;28;20042;-80
2023/12/05 00:12:46;;;;;;;24.92;16.88;;;1.10;99.90;;;;;;4973627;28;20030;-80
2023/12/05 00:15:12;;;;;;;22.63;17.05;;;1.10;99.90;;;;;;4992518;28;20038;-79
2023/12/05 00:17:38;;;;;;;22.98;17.30;;;1.10;99.90;;;;;;5009957;28;20037;-79
2023/12/05 00:20:04;;;;;;;24.27;18.13;;;1.20;99.90;;;;;;4974784;28;20290;-80
2023/12/05 00:22:30;;;;;;;25.38;18.77;;;1.10;99.90;;;;;;4971327;28;20060;-80
2023/12/05 00:24:56;;;;;;;22.77;18.42;;;1.20;99.90;;;;;;4955678;28;20038;-87
2023/12/05 00:27:21;;;;;;;23.77;18.25;;;1.30;99.90;;;;;;4978266;28;20132;-86
2023/12/05 00:29:47;;;;;;;24.30;19.02;;;1.20;99.90;;;;;;4971952;28;20046;-86
2023/12/05 00:32:13;;;;;;;25.23;18.52;;;1.10;99.90;;;;;;4975639;28;20384;-87
2023/12/05 00:34:39;;;;;;;24.45;18.85;;;1.20;99.90;;;;;;4976443;28;20065;-86
2023/12/05 00:37:05;;;;;;;26.15;19.85;;;1.20;99.90;;;;;;4972526;28;20112;-86
2023/12/05 00:39:31;;;;;;;26.02;18.67;;;1.10;99.90;;;;;;4957090;28;20035;-85
2023/12/05 00:41:56;;;;;;;26.52;20.15;;;1.40;99.90;;;;;;4977728;28;20753;-86
2023/12/05 00:44:22;;;;;;;25.80;19.65;;;1.20;99.90;;;;;;4961948;28;20057;-86
2023/12/05 00:46:48;;;;;;;26.27;20.08;;;1.10;99.90;;;;;;4975341;28;20045;-86
2023/12/05 00:49:13;;;;;;;24.52;19.38;;;1.20;99.90;;;;;;4964217;28;20042;-87
2023/12/05 00:51:39;;;;;;;25.95;20.52;;;1.40;99.90;;;;;;4975596;28;20174;-86
2023/12/05 00:54:05;;;;;;;26.45;21.33;;;1.30;99.90;;;;;;4964794;28;20468;-86
2023/12/05 00:56:31;;;;;;;26.70;20.90;;;1.30;99.90;;;;;;4997948;28;20125;-86
2023/12/05 00:58:57;;;;;;;26.02;20.73;;;1.10;99.90;;;;;;4976567;28;20038;-86
2023/12/05 01:01:23;;;;;;;27.17;20.95;;;1.30;99.90;;;;;;4983691;28;20120;-86
2023/12/05 01:03:51;;;;;;;28.88;21.15;;;1.10;99.90;;;;;;4983007;28;20320;-87
2023/12/05 01:06:18;;;;;;;28.13;21.40;;;1.10;99.90;;;;;;4999485;28;20045;-86
2023/12/05 01:08:44;;;;;;;28.08;21.17;;;1.10;99.90;;;;;;4983515;28;20128;-86
2023/12/05 01:11:13;;;;;;;27.83;22.08;;;1.30;99.90;;;;;;4980676;28;20083;-86
2023/12/05 01:13:38;;;;;;;28.20;20.77;;;1.30;99.90;;;;;;4963453;28;20107;-86
2023/12/05 01:16:05;;;;;;;28.30;20.73;;;1.30;99.90;;;;;;4974351;28;20385;-84
2023/12/05 01:18:31;;;;;;;26.55;20.55;;;1.00;99.90;;;;;;4963476;28;20132;-87
2023/12/05 01:20:59;;;;;;;28.48;21.08;;;1.20;99.90;;;;;;4983379;28;20230;-87
2023/12/05 01:23:25;;;;;;;27.70;20.88;;;1.00;99.90;;;;;;4967599;28;20045;-87
2023/12/05 01:25:51;;;;;;;28.88;21.15;;;1.20;99.90;;;;;;4962317;28;20042;-86
2023/12/05 01:28:16;;;;;;;27.23;20.95;;;1.20;99.90;;;;;;4973262;28;20046;-87
2023/12/05 01:30:43;;;;;;;28.33;21.08;;;1.00;99.90;;;;;;4974380;28;20049;-86
2023/12/05 01:33:09;;;;;;;27.77;21.40;;;1.20;99.90;;;;;;4976378;28;20275;-88
2023/12/05 01:35:34;;;;;;;27.50;20.50;;;1.20;99.90;;;;;;4977034;28;20042;-87
2023/12/05 01:38:00;;;;;;;27.83;20.50;;;1.00;99.90;;;;;;4967981;28;20092;-87
2023/12/05 01:40:26;;;;;;;26.23;20.00;;;1.00;99.90;;;;;;4972411;28;20057;-87
2023/12/05 01:42:52;;;;;;;28.08;20.92;;;1.20;99.90;;;;;;4974182;28;20050;-87
2023/12/05 01:45:17;;;;;;;28.50;21.50;;;1.20;99.90;;;;;;4996567;28;20475;-87
2023/12/05 01:47:43;;;;;;;29.40;20.85;;;1.20;99.90;;;;;;4994650;28;20041;-86
2023/12/05 01:50:13;;;;;;;26.60;20.20;;;1.20;99.90;;;;;;4974375;28;20523;-87
2023/12/05 01:52:41;;;;;;;28.83;21.50;;;1.10;99.90;;;;;;4995273;28;20508;-87
2023/12/05 01:55:09;;;;;;;28.60;21.45;;;1.20;99.90;;;;;;4981705;28;20064;-87
2023/12/05 01:57:38;;;;;;;27.90;21.38;;;1.20;99.90;;;;;;4984952;28;20046;-87
2023/12/05 02:00:06;;;;;;;27.40;20.92;;;1.10;99.90;;;;;;4983313;28;20039;-88
2023/12/05 02:02:32;;;;;;;30.63;21.55;;;1.00;99.90;;;;;;4982202;28;20516;-87
2023/12/05 02:04:57;;;;;;;28.50;21.95;;;0.90;99.90;;;;;;4973521;28;20069;-86
2023/12/05 02:07:23;;;;;;;27.65;20.92;;;1.20;99.90;;;;;;4961146;28;20417;-87
2023/12/05 02:09:49;;;;;;;27.23;20.92;;;1.20;99.90;;;;;;4961064;28;20585;-86
2023/12/05 02:12:15;;;;;;;28.77;20.67;;;1.20;99.90;;;;;;4974377;28;20037;-86
2023/12/05 02:14:42;;;;;;;29.38;21.30;;;1.20;99.90;;;;;;4984475;28;20468;-87
2023/12/05 02:17:20;;;;;;;29.08;21.50;;;1.10;99.90;;;;;;4991055;28;20045;-87
2023/12/05 02:19:50;;;;;;;29.88;21.83;;;1.00;99.90;;;;;;4977384;28;20050;-86
2023/12/05 02:22:48;;;;;;;30.25;21.23;;;1.00;99.90;;;;;;4993572;28;20069;-87
2023/12/05 02:25:53;;;;;;;27.60;20.25;;;1.10;99.90;;;;;;4944798;28;20054;-87
2023/12/05 02:28:19;;;;;;;29.90;21.70;;;0.90;99.90;;;;;;4962151;28;20513;-87
2023/12/05 02:30:45;;;;;;;30.40;21.88;;;0.90;99.90;;;;;;4977603;28;20201;-86
2023/12/05 02:33:10;;;;;;;28.25;21.85;;;1.00;99.90;;;;;;4975705;28;20200;-86
2023/12/05 02:35:37;;;;;;;30.75;21.58;;;0.90;99.90;;;;;;4979633;28;20033;-87
2023/12/05 02:38:24;;;;;;;30.35;21.38;;;0.90;99.90;;;;;;4960015;28;20301;-86
2023/12/05 02:40:59;;;;;;;28.30;20.83;;;1.10;99.90;;;;;;4972399;28;20037;-86
2023/12/05 02:43:36;;;;;;;28.70;21.58;;;1.10;99.90;;;;;;4975938;28;20049;-87
2023/12/05 02:46:05;;;;;;;29.45;21.55;;;0.80;99.90;;;;;;4999893;28;20301;-87
2023/12/05 02:48:32;;;;;;;31.77;21.50;;;1.10;99.90;;;;;;4958211;28;20096;-86
2023/12/05 02:50:58;;;;;;;30.63;22.15;;;0.90;99.90;;;;;;4998181;28;20130;-87
2023/12/05 02:53:23;;;;;;;31.33;22.45;;;0.90;99.90;;;;;;4974945;28;20496;-86
2023/12/05 02:55:49;;;;;;;31.80;22.52;;;1.10;99.90;;;;;;5006537;28;20579;-87
2023/12/05 02:58:15;;;;;;;28.70;22.15;;;1.00;99.90;;;;;;4973008;28;20048;-87
2023/12/05 03:00:42;;;;;;;29.20;22.30;;;1.00;99.90;;;;;;4979204;28;20046;-87
2023/12/05 03:03:07;;;;;;;29.92;22.45;;;0.90;99.90;;;;;;4978376;28;20038;-87
2023/12/05 03:05:33;;;;;;;30.63;21.85;;;1.00;99.90;;;;;;4993440;28;20574;-87
2023/12/05 03:07:59;;;;;;;30.50;22.25;;;0.90;99.90;;;;;;4960713;28;20089;-88
2023/12/05 03:10:24;;;;;;;33.72;22.88;;;1.00;99.90;;;;;;4976287;28;20042;-87
2023/12/05 03:12:50;;;;;;;31.50;22.58;;;1.10;99.90;;;;;;4958898;28;20034;-87
2023/12/05 03:15:19;;;;;;;29.77;21.65;;;1.10;99.90;;;;;;4968526;28;20300;-87
2023/12/05 03:17:45;;;;;;;29.52;21.67;;;1.00;99.90;;;;;;4975798;28;20071;-88
2023/12/05 03:20:11;;;;;;;32.33;22.23;;;0.80;99.90;;;;;;4994255;28;20044;-87
2023/12/05 03:22:37;;;;;;;33.00;23.33;;;0.80;99.90;;;;;;4997696;28;20034;-87
2023/12/05 03:25:02;;;;;;;29.92;21.67;;;1.00;99.90;;;;;;4977922;28;20237;-87
2023/12/05 03:27:28;;;;;;;29.95;21.83;;;0.80;99.90;;;;;;4989163;28;20058;-87
2023/12/05 03:29:54;;;;;;;32.38;22.35;;;1.00;99.90;;;;;;4974946;28;20469;-86
2023/12/05 03:32:19;;;;;;;32.85;22.77;;;0.80;99.90;;;;;;4969478;28;20281;-87
2023/12/05 03:34:47;;;;;;;30.63;22.88;;;0.80;99.90;;;;;;4968278;28;20038;-86
2023/12/05 03:37:12;;;;;;;33.10;23.50;;;0.80;99.90;;;;;;4964761;28;20477;-86
2023/12/05 03:39:38;;;;;;;30.88;22.90;;;0.90;99.90;;;;;;4976406;28;20473;-86
2023/12/05 03:42:04;;;;;;;31.60;23.70;;;0.70;99.90;;;;;;4959607;28;20089;-86
2023/12/05 03:44:30;;;;;;;32.30;23.58;;;0.80;99.90;;;;;;4974852;28;20042;-87
2023/12/05 03:46:56;;;;;;;31.30;23.10;;;0.90;99.90;;;;;;4972927;28;20037;-85
2023/12/05 03:49:22;;;;;;;33.70;24.48;;;0.90;99.90;;;;;;4996475;28;20038;-87
2023/12/05 03:51:48;;;;;;;32.22;24.13;;;0.90;99.90;;;;;;4982100;28;20088;-86
2023/12/05 03:54:13;;;;;;;33.05;24.13;;;0.80;99.90;;;;;;4980152;28;20038;-86
2023/12/05 03:56:39;;;;;;;34.70;24.27;;;0.90;99.90;;;;;;4959668;28;20108;-86
2023/12/05 03:59:05;;;;;;;33.22;23.75;;;0.90;99.90;;;;;;4967342;28;20450;-87
2023/12/05 04:01:30;;;;;;;35.25;24.52;;;1.00;99.90;;;;;;4964838;28;20052;-87
2023/12/05 04:03:56;;;;;;;34.35;24.90;;;0.80;99.90;;;;;;4977967;28;20073;-87
2023/12/05 04:06:23;;;;;;;35.17;25.60;;;0.80;99.90;;;;;;4993378;28;20706;-86
2023/12/05 04:08:49;;;;;;;36.35;25.55;;;0.80;99.90;;;;;;4976755;28;20188;-86
2023/12/05 04:11:15;;;;;;;33.10;24.77;;;0.80;99.90;;;;;;4975541;28;20084;-88
2023/12/05 04:13:42;;;;;;;32.38;24.25;;;1.00;99.90;;;;;;4994885;28;20048;-87
2023/12/05 04:16:08;;;;;;;36.17;25.48;;;0.90;99.90;;;;;;4993996;28;20118;-86
2023/12/05 04:18:34;;;;;;;33.33;24.50;;;1.10;99.90;;;;;;4991904;28;20042;-87
2023/12/05 04:20:59;;;;;;;34.70;25.58;;;1.00;99.90;;;;;;4981806;28;20291;-87
2023/12/05 04:23:25;;;;;;;32.88;24.83;;;1.00;99.90;;;;;;4971926;28;20495;-86
2023/12/05 04:25:51;;;;;;;33.58;23.80;;;0.80;99.90;;;;;;4977200;28;20362;-86
2023/12/05 04:28:16;;;;;;;33.78;24.33;;;0.90;99.90;;;;;;4992568;28;20058;-87
2023/12/05 04:30:42;;;;;;;34.58;24.92;;;1.00;99.90;;;;;;4976001;28;20423;-87
2023/12/05 04:33:08;;;;;;;36.05;25.67;;;1.10;99.90;;;;;;4961972;28;20602;-86
2023/12/05 04:35:35;;;;;;;34.47;25.15;;;1.00;99.90;;;;;;4977335;28;20457;-86
2023/12/05 04:38:02;;;;;;;32.97;24.92;;;0.80;99.90;;;;;;4960730;28;20057;-86
2023/12/05 04:40:27;;;;;;;34.55;25.42;;;0.80;99.90;;;;;;4973351;28;20050;-86
2023/12/05 04:42:53;;;;;;;35.25;25.48;;;0.90;99.90;;;;;;4956493;28;20080;-88
2023/12/05 04:45:19;;;;;;;34.58;25.55;;;0.80;99.90;;;;;;4958792;28;20050;-87
2023/12/05 04:47:45;;;;;;;37.58;25.95;;;1.00;99.90;;;;;;4972047;28;20081;-86
2023/12/05 04:50:11;;;;;;;34.13;25.10;;;0.90;99.90;;;;;;4979753;28;20038;-87
2023/12/05 04:52:36;;;;;;;34.47;24.77;;;1.10;99.90;;;;;;4982929;28;20100;-87
2023/12/05 04:55:03;;;;;;;34.33;24.98;;;1.00;99.90;;;;;;4981806;28;20291;-86
2023/12/05 04:57:29;;;;;;;33.72;24.27;;;0.90;99.90;;;;;;4981657;28;20206;-86
2023/12/05 04:59:54;;;;;;;37.00;26.23;;;0.90;99.90;;;;;;4961676;28;20682;-86
2023/12/05 05:02:20;;;;;;;37.70;26.23;;;1.10;99.90;;;;;;4977515;28;20058;-87
2023/12/05 05:04:46;;;;;;;37.25;26.08;;;1.10;99.90;;;;;;4991319;28;20465;-86
2023/12/05 05:07:11;;;;;;;36.15;26.30;;;0.90;99.90;;;;;;4974457;28;20038;-86
2023/12/05 05:09:40;;;;;;;38.00;26.13;;;1.00;99.90;;;;;;4978180;28;20056;-87
2023/12/05 05:12:10;;;;;;;38.72;27.25;;;1.10;99.90;;;;;;4978642;28;20038;-87
2023/12/05 05:14:36;;;;;;;35.97;26.35;;;1.10;99.90;;;;;;4980035;28;20048;-87
2023/12/05 05:17:08;;;;;;;37.33;26.10;;;0.90;99.90;;;;;;4983393;28;20045;-87
2023/12/05 05:19:34;;;;;;;38.42;27.23;;;1.10;99.90;;;;;;4978191;28;20240;-87
2023/12/05 05:21:59;;;;;;;35.90;25.42;;;0.90;99.90;;;;;;4970946;28;20045;-87
2023/12/05 05:24:25;;;;;;;37.15;25.95;;;0.90;99.90;;;;;;4976335;28;20057;-87
2023/12/05 05:26:51;;;;;;;36.33;25.67;;;0.90;99.90;;;;;;4980015;28;20050;-86
2023/12/05 05:29:17;;;;;;;37.15;25.67;;;1.10;99.90;;;;;;4983199;28;20046;-86
2023/12/05 05:31:43;;;;;;;39.50;25.90;;;0.90;99.90;;;;;;4963720;28;20095;-87
2023/12/05 05:34:08;;;;;;;38.42;25.90;;;1.00;99.90;;;;;;4974860;28;20287;-87
2023/12/05 05:36:34;;;;;;;39.45;26.65;;;0.90;99.90;;;;;;4978413;28;20113;-87
2023/12/05 05:39:00;;;;;;;38.05;26.65;;;0.90;99.90;;;;;;4980100;28;20217;-87
2023/12/05 05:41:26;;;;;;;39.47;26.45;;;0.90;99.90;;;;;;4981106;28;20119;-87
2023/12/05 05:43:53;;;;;;;38.95;26.60;;;0.80;99.90;;;;;;4978222;28;20106;-86
2023/12/05 05:46:19;;;;;;;38.92;26.38;;;0.90;99.90;;;;;;4980996;28;20075;-87
2023/12/05 05:48:44;;;;;;;38.90;26.30;;;1.10;99.90;;;;;;4981580;28;20637;-87
2023/12/05 05:51:10;;;;;;;39.60;26.60;;;1.10;99.90;;;;;;4982021;28;20137;-87
2023/12/05 05:53:36;;;;;;;41.00;27.35;;;1.10;99.90;;;;;;4998705;28;20038;-87
2023/12/05 05:56:02;;;;;;;39.15;26.02;;;0.90;99.90;;;;;;4965318;28;20038;-86
2023/12/05 05:58:28;;;;;;;42.00;27.65;;;1.10;99.90;;;;;;4967722;28;20042;-86
2023/12/05 06:00:53;;;;;;;38.97;26.23;;;0.90;99.90;;;;;;4982752;28;20567;-87
2023/12/05 06:03:19;;;;;;;42.35;29.10;;;1.10;99.90;;;;;;4971712;28;20256;-87
2023/12/05 06:05:45;;;;;;;39.13;26.38;;;1.10;99.90;;;;;;4973577;28;20077;-87
2023/12/05 06:08:11;;;;;;;39.53;27.13;;;0.90;99.90;;;;;;4983268;28;20069;-87
2023/12/05 06:10:37;;;;;;;37.47;26.45;;;0.90;99.90;;;;;;4979239;28;20042;-86
2023/12/05 06:13:03;;;;;;;42.63;27.55;;;1.10;99.90;;;;;;4977167;28;20045;-86
2023/12/05 06:15:28;;;;;;;41.97;26.98;;;1.00;99.90;;;;;;4962072;28;20026;-87
2023/12/05 06:17:56;;;;;;;39.95;27.40;;;1.10;99.90;;;;;;4973884;28;20504;-87
2023/12/05 06:20:22;;;;;;;40.42;26.65;;;1.10;99.90;;;;;;4990333;28;20057;-87
2023/12/05 06:22:48;;;;;;;41.08;27.10;;;1.10;99.90;;;;;;4991461;28;20039;-87
2023/12/05 06:25:16;;;;;;;41.75;27.38;;;0.90;99.90;;;;;;4982509;28;20034;-87
2023/12/05 06:27:42;;;;;;;37.83;26.13;;;1.00;99.90;;;;;;4991661;28;20042;-87
2023/12/05 06:30:08;;;;;;;39.20;27.77;;;0.90;99.90;;;;;;4972271;28;20046;-86
2023/12/05 06:32:33;;;;;;;40.42;26.75;;;1.20;99.90;;;;;;4972260;28;20116;-87
2023/12/05 06:34:59;;;;;;;39.70;26.15;;;0.90;99.90;;;;;;4980114;28;20038;-86
2023/12/05 06:37:25;;;;;;;39.50;27.35;;;1.20;99.90;;;;;;4981952;28;20371;-86
2023/12/05 06:39:51;;;;;;;42.38;27.42;;;0.90;99.90;;;;;;4972988;28;20519;-87
2023/12/05 06:42:17;;;;;;;43.20;27.23;;;0.90;99.90;;;;;;4980203;28;20058;-86
2023/12/05 06:44:45;;;;;;;42.28;28.40;;;1.00;99.90;;;;;;4983074;28;20132;-87
2023/12/05 06:47:12;;;;;;;41.17;26.70;;;1.00;99.90;;;;;;4974813;28;20313;-87
2023/12/05 06:49:38;;;;;;;42.92;27.98;;;1.10;99.90;;;;;;4979764;28;20068;-86
2023/12/05 06:52:05;;;;;;;43.60;27.75;;;1.20;99.90;;;;;;4972383;28;20164;-86
2023/12/05 06:54:31;;;;;;;41.63;27.50;;;1.10;99.90;;;;;;4980040;28;20129;-87
2023/12/05 06:56:56;;;;;;;43.38;27.77;;;0.90;99.90;;;;;;4958973;28;20048;-86
2023/12/05 06:59:22;;;;;;;41.83;27.73;;;1.20;99.90;;;;;;4972379;28;20042;-86
2023/12/05 07:01:48;;;;;;;41.28;28.33;;;0.90;99.90;;;;;;4975561;28;20045;-87
2023/12/05 07:04:13;;;;;;;44.42;28.45;;;1.10;99.90;;;;;;4990414;28;20050;-85
2023/12/05 07:06:39;;;;;;;43.08;27.52;;;0.90;99.90;;;;;;4981194;28;20453;-86
2023/12/05 07:09:05;;;;;;;42.50;27.25;;;1.00;99.90;;;;;;4967899;28;20299;-85
2023/12/05 07:11:31;;;;;;;46.63;29.30;;;1.10;99.90;;;;;;4976016;28;20489;-87
2023/12/05 07:13:57;;;;;;;41.92;27.58;;;1.00;99.90;;;;;;4973882;28;20410;-87
2023/12/05 07:16:25;;;;;;;41.83;27.70;;;1.10;99.90;;;;;;4975417;28;20052;-87
2023/12/05 07:18:51;;;;;;;42.28;27.27;;;1.10;99.90;;;;;;4967504;28;20080;-87
2023/12/05 07:21:19;;;;;;;42.08;27.70;;;0.90;99.90;;;;;;4960085;28;20053;-87
2023/12/05 07:23:55;;;;;;;41.65;27.30;;;1.10;99.90;;;;;;4976144;28;20347;-86
2023/12/05 07:26:20;;;;;;;41.75;26.80;;;1.10;99.90;;;;;;4992192;28;20355;-86
2023/12/05 07:28:46;;;;;;;45.15;28.05;;;0.90;99.90;;;;;;4958893;28;20051;-87
2023/12/05 07:31:12;;;;;;;40.03;26.42;;;1.00;99.90;;;;;;4957922;28;20084;-87
2023/12/05 07:33:38;;;;;;;49.45;28.45;;;1.20;99.90;;;;;;4974451;28;20498;-87
2023/12/05 07:36:05;;;;;;;42.50;26.90;;;1.00;99.90;;;;;;4967915;28;20135;-86
2023/12/05 07:38:32;;;;;;;40.67;26.73;;;1.20;99.90;;;;;;4992700;28;20154;-87
2023/12/05 07:40:58;;;;;;;40.33;25.92;;;1.10;99.90;;;;;;4989793;28;20108;-87
2023/12/05 07:43:24;;;;;;;42.63;27.25;;;1.00;99.90;;;;;;4974910;28;20461;-87
2023/12/05 07:45:50;;;;;;;42.83;26.25;;;1.10;99.90;;;;;;4982109;28;20092;-87
2023/12/05 07:48:16;;;;;;;36.63;25.33;;;1.00;99.90;;;;;;4971681;28;20038;-87
2023/12/05 07:50:42;;;;;;;42.67;27.17;;;1.20;99.90;;;;;;4991554;28;20115;-86
2023/12/05 07:53:07;;;;;;;41.35;26.42;;;1.10;99.90;;;;;;4978323;28;20577;-87
2023/12/05 07:55:33;;;;;;;39.63;25.67;;;1.10;99.90;;;;;;4958954;28;20128;-87
2023/12/05 07:57:59;;;;;;;38.78;25.08;;;1.20;99.90;;;;;;4980740;28;20551;-86
2023/12/05 08:00:24;;;;;;;40.10;26.27;;;1.20;99.90;;;;;;4976559;28;20038;-87
2023/12/05 08:02:50;;;;;;;39.65;25.75;;;1.10;99.90;;;;;;4973760;28;20069;-87
2023/12/05 08:05:16;;;;;;;39.90;26.50;;;1.10;99.90;;;;;;4991843;28;20457;-87
2023/12/05 08:07:42;;;;;;;38.47;24.73;;;1.00;99.90;;;;;;4997600;28;20042;-87
2023/12/05 08:10:09;;;;;;;38.58;25.67;;;1.10;99.90;;;;;;4960953;28;20050;-87
2023/12/05 08:12:35;;;;;;;38.22;25.70;;;1.10;99.90;;;;;;4971634;28;20474;-87
2023/12/05 08:15:01;;;;;;;38.10;25.88;;;1.10;99.90;;;;;;4960413;28;20037;-87
2023/12/05 08:17:27;;;;;;;36.10;25.90;;;1.20;99.90;;;;;;4955842;28;20506;-87
2023/12/05 08:19:54;;;;;;;39.65;25.75;;;1.10;99.90;;;;;;4975260;28;20073;-86
2023/12/05 08:22:21;;;;;;;39.67;26.58;;;1.00;99.90;;;;;;4979254;28;20049;-86
2023/12/05 08:24:48;;;;;;;42.17;26.45;;;1.30;99.90;;;;;;4971664;28;20044;-87
2023/12/05 08:27:14;;;;;;;37.08;24.95;;;1.20;99.90;;;;;;4978033;28;20467;-87
2023/12/05 08:29:40;;;;;;;39.40;26.90;;;1.10;99.90;;;;;;4959431;28;20048;-86
2023/12/05 08:32:07;;;;;;;39.80;27.63;;;1.20;99.90;;;;;;4977400;28;20113;-87
2023/12/05 08:34:34;;;;;;;39.75;26.38;;;1.10;99.90;;;;;;4992844;28;20121;-88
2023/12/05 08:37:00;;;;;;;40.20;25.77;;;1.40;99.90;;;;;;4959125;28;20096;-87
2023/12/05 08:39:25;;;;;;;36.03;25.17;;;1.20;99.90;;;;;;4965251;28;20663;-88
2023/12/05 08:41:52;;;;;;;38.50;26.65;;;1.20;99.90;;;;;;4975590;28;20601;-87
2023/12/05 08:44:19;;;;;;;39.67;25.63;;;1.30;99.90;;;;;;4970679;28;20143;-87
2023/12/05 08:46:46;;;;;;;38.08;26.17;;;1.20;99.90;;;;;;4992459;28;20046;-87
2023/12/05 08:49:13;;;;;;;37.45;24.88;;;1.40;99.90;;;;;;4972556;28;20532;-87
2023/12/05 08:51:39;;;;;;;37.38;25.40;;;1.50;99.90;;;;;;4989770;28;20060;-87
2023/12/05 08:54:05;;;;;;;37.35;25.27;;;1.30;99.90;;;;;;4957361;28;20034;-86
2023/12/05 08:56:32;;;;;;;37.35;26.58;;;1.40;99.90;;;;;;4971149;28;20052;-87
2023/12/05 08:58:57;;;;;;;37.45;25.83;;;1.50;99.90;;;;;;4974422;28;20077;-87
2023/12/05 09:01:23;;;;;;;38.67;25.83;;;1.30;99.90;;;;;;4968429;28;20077;-87
2023/12/05 09:03:52;;;;;;;38.35;25.70;;;1.20;99.90;;;;;;4956894;28;20069;-86
2023/12/05 09:06:18;;;;;;;38.05;25.42;;;1.40;99.90;;;;;;4994533;28;20357;-87
2023/12/05 09:08:44;;;;;;;36.78;24.70;;;1.40;99.90;;;;;;4978485;28;20125;-86
2023/12/05 09:11:12;;;;;;;35.80;25.20;;;1.60;99.90;;;;;;4996847;28;20636;-87
2023/12/05 09:13:37;;;;;;;36.40;25.58;;;1.60;99.90;;;;;;4967462;28;20038;-87
2023/12/05 09:16:04;;;;;;;37.53;25.83;;;1.50;99.90;;;;;;4976656;28;20070;-87
2023/12/05 09:18:31;;;;;;;36.90;24.80;;;1.40;99.90;;;;;;4981177;28;20129;-86
2023/12/05 09:20:57;;;;;;;36.25;25.23;;;1.60;99.90;;;;;;4994435;28;20041;-86
2023/12/05 09:23:23;;;;;;;38.63;25.25;;;1.50;99.90;;;;;;4979954;28;20486;-88
2023/12/05 09:25:49;;;;;;;38.22;26.08;;;1.50;99.90;;;;;;4973349;28;20122;-87
2023/12/05 09:28:15;;;;;;;37.90;25.17;;;1.60;99.90;;;;;;4989279;28;20125;-87
2023/12/05 09:30:41;;;;;;;35.22;24.30;;;1.70;99.90;;;;;;4952620;28;20139;-87
2023/12/05 09:33:06;;;;;;;36.65;25.15;;;1.70;99.90;;;;;;4980857;28;20533;-87
2023/12/05 09:35:32;;;;;;;38.78;26.33;;;1.60;99.90;;;;;;4988361;28;20164;-87
2023/12/05 09:37:58;;;;;;;35.67;24.70;;;1.60;99.90;;;;;;4975148;28;20038;-88
2023/12/05 09:40:24;;;;;;;33.50;24.27;;;1.60;99.90;;;;;;4974959;28;20038;-87
2023/12/05 09:42:54;;;;;;;38.90;26.23;;;1.80;99.90;;;;;;4994728;28;20058;-86
2023/12/05 09:45:21;;;;;;;36.28;25.30;;;1.80;99.90;;;;;;4962273;28;20046;-86
2023/12/05 09:47:49;;;;;;;35.55;24.88;;;1.90;99.90;;;;;;4977324;28;20477;-87
2023/12/05 09:50:18;;;;;;;36.30;25.15;;;1.70;99.90;;;;;;4977360;28;20516;-88
2023/12/05 09:52:44;;;;;;;35.97;24.90;;;1.90;99.90;;;;;;4976250;28;20042;-87
2023/12/05 09:55:10;;;;;;;38.70;26.50;;;1.90;99.90;;;;;;4992243;28;20034;-88
2023/12/05 09:57:37;;;;;;;34.97;23.88;;;1.80;99.90;;;;;;4993712;28;20040;-87
2023/12/05 10:00:04;;;;;;;34.70;25.05;;;1.90;99.90;;;;;;4980255;28;20133;-87
2023/12/05 10:02:32;;;;;;;34.03;24.27;;;2.00;99.90;;;;;;4978833;28;20168;-87
2023/12/05 10:05:05;;;;;;;36.65;24.90;;;2.00;99.90;;;;;;4976407;28;20049;-86
2023/12/05 10:07:31;;;;;;;34.40;24.08;;;2.10;99.90;;;;;;4977308;28;20400;-87
2023/12/05 10:09:58;;;;;;;36.17;24.67;;;2.00;99.90;;;;;;4991822;28;20042;-88
2023/12/05 10:12:23;;;;;;;34.63;25.20;;;2.10;99.90;;;;;;4970745;28;20068;-86
2023/12/05 10:14:51;;;;;;;34.75;23.98;;;2.40;99.90;;;;;;4996520;28;20486;-87
2023/12/05 10:17:16;;;;;;;35.03;23.50;;;2.20;99.90;;;;;;4968800;28;20485;-87
2023/12/05 10:19:42;;;;;;;34.53;24.65;;;2.40;99.90;;;;;;4995452;28;20103;-88
2023/12/05 10:22:09;;;;;;;33.40;23.27;;;2.60;99.90;;;;;;4976935;28;20535;-87
2023/12/05 10:24:48;;;;;;;33.22;22.50;;;2.40;99.90;;;;;;4978589;28;20177;-87
2023/12/05 10:27:15;;;;;;;33.33;23.15;;;2.50;99.90;;;;;;4980724;28;20053;-87
2023/12/05 10:29:41;;;;;;;34.03;23.38;;;2.40;99.90;;;;;;4981749;28;20045;-88
2023/12/05 10:32:08;;;;;;;34.58;22.80;;;2.70;99.90;;;;;;4975298;28;20038;-87
2023/12/05 10:34:48;;;;;;;32.25;22.95;;;2.70;99.90;;;;;;4966687;28;20052;-84
2023/12/05 10:37:14;;;;;;;29.83;21.30;;;2.60;99.90;;;;;;4976941;28;20042;-87
2023/12/05 10:39:39;;;;;;;31.92;22.23;;;2.80;99.90;;;;;;4978981;28;20042;-87
2023/12/05 10:42:07;;;;;;;32.10;22.15;;;2.70;99.90;;;;;;4987783;28;20062;-86
2023/12/05 10:44:38;;;;;;;30.35;20.90;;;2.60;99.90;;;;;;4985319;28;20486;-87
2023/12/05 10:47:05;;;;;;;31.15;22.23;;;2.70;99.90;;;;;;4966901;28;20041;-87
2023/12/05 10:49:31;;;;;;;30.17;22.08;;;2.70;99.90;;;;;;4958091;28;20058;-87
2023/12/05 10:51:58;;;;;;;31.35;22.13;;;2.60;99.90;;;;;;4975592;28;20113;-88
2023/12/05 10:54:25;;;;;;;32.72;23.40;;;2.70;99.90;;;;;;4980198;28;20421;-88
2023/12/05 10:56:58;;;;;;;31.48;21.50;;;2.90;99.90;;;;;;4978655;28;20400;-86
2023/12/05 10:59:27;;;;;;;32.05;22.20;;;2.80;99.90;;;;;;4980014;28;20042;-87
2023/12/05 11:01:56;;;;;;;31.75;21.80;;;2.60;99.90;;;;;;4977713;28;20087;-85
2023/12/05 11:04:25;;;;;;;31.77;22.63;;;2.80;99.90;;;;;;4977752;28;20050;-86
2023/12/05 11:06:54;;;;;;;30.73;21.70;;;2.60;99.90;;;;;;4995636;28;20093;-88
2023/12/05 11:09:22;;;;;;;31.27;21.88;;;2.60;99.90;;;;;;4979613;28;20042;-87
2023/12/05 11:11:53;;;;;;;33.17;23.02;;;2.50;99.90;;;;;;4974271;28;20129;-87
2023/12/05 11:14:21;;;;;;;33.47;22.48;;;2.60;99.90;;;;;;4994364;28;20101;-86
2023/12/05 11:16:50;;;;;;;31.65;21.77;;;2.60;99.90;;;;;;4954833;28;20485;-88
2023/12/05 11:19:41;;;;;;;30.70;21.25;;;2.60;99.90;;;;;;4971146;28;20133;-86
2023/12/05 11:22:33;;;;;;;30.88;22.05;;;2.50;99.90;;;;;;4981384;28;20583;-87
2023/12/05 11:25:09;;;;;;;32.65;23.00;;;2.50;99.90;;;;;;4979524;28;20268;-87
2023/12/05 11:28:07;;;;;;;32.25;22.98;;;2.30;99.90;;;;;;4978232;28;20116;-87
2023/12/05 11:30:48;;;;;;;32.50;23.05;;;2.20;99.90;;;;;;4960445;28;20093;-87
2023/12/05 11:33:32;;;;;;;29.80;21.65;;;2.10;99.90;;;;;;4995254;28;20254;-87
2023/12/05 11:35:58;;;;;;;33.30;23.58;;;2.10;99.90;;;;;;5010098;28;20501;-85
2023/12/05 11:38:24;;;;;;;36.60;23.63;;;2.20;99.90;;;;;;4976551;28;20038;-87
2023/12/05 11:41:10;;;;;;;33.45;22.63;;;2.30;99.90;;;;;;4977585;28;20049;-86
2023/12/05 11:43:36;;;;;;;32.83;22.75;;;2.00;99.90;;;;;;4992655;28;20369;-87
2023/12/05 11:46:03;;;;;;;35.53;23.92;;;2.30;99.90;;;;;;4980744;28;20226;-87
2023/12/05 11:48:30;;;;;;;33.05;22.80;;;2.00;99.90;;;;;;4958621;28;20121;-86
2023/12/05 11:50:56;;;;;;;33.42;23.55;;;2.00;99.90;;;;;;4990923;28;20119;-87
2023/12/05 11:53:22;;;;;;;32.38;22.83;;;1.90;99.90;;;;;;5010665;28;20041;-86
2023/12/05 11:55:48;;;;;;;34.10;24.02;;;2.10;99.90;;;;;;4969375;28;20038;-87
2023/12/05 11:58:30;;;;;;;32.83;23.17;;;2.10;99.90;;;;;;4973739;28;20035;-87
2023/12/05 12:01:05;;;;;;;34.45;24.15;;;2.20;99.90;;;;;;4974166;28;20049;-87
2023/12/05 12:03:50;;;;;;;35.13;23.80;;;2.10;99.90;;;;;;4988997;28;20071;-87
2023/12/05 12:06:21;;;;;;;34.15;24.25;;;1.60;99.90;;;;;;4974728;28;20030;-87
2023/12/05 12:08:50;;;;;;;35.40;22.90;;;2.00;99.90;;;;;;4967555;28;20052;-86
2023/12/05 12:11:16;;;;;;;34.95;23.95;;;1.80;99.90;;;;;;4970112;28;20049;-87
2023/12/05 12:13:43;;;;;;;36.30;23.35;;;1.90;99.90;;;;;;4993374;28;20140;-87
2023/12/05 12:16:14;;;;;;;34.08;23.40;;;2.00;99.90;;;;;;4991334;28;20053;-87
2023/12/05 12:18:40;;;;;;;33.35;22.92;;;2.00;99.90;;;;;;4992587;28;20176;-87
2023/12/05 12:21:05;;;;;;;35.60;23.52;;;1.80;99.90;;;;;;4989093;28;20121;-87
2023/12/05 12:23:32;;;;;;;33.03;23.05;;;1.60;99.90;;;;;;4993083;28;20215;-85
2023/12/05 12:26:00;;;;;;;34.90;24.15;;;1.90;99.90;;;;;;4974198;28;20050;-87
2023/12/05 12:28:30;;;;;;;35.45;23.52;;;2.00;99.90;;;;;;4965727;28;20046;-87
2023/12/05 12:30:57;;;;;;;35.65;24.95;;;1.90;99.90;;;;;;4975717;28;20054;-87
2023/12/05 12:33:28;;;;;;;37.58;24.05;;;1.80;99.90;;;;;;4973229;28;20578;-86
2023/12/05 12:35:55;;;;;;;36.83;24.02;;;1.60;99.90;;;;;;4993901;28;20516;-87